Wetterstation Vordersexau
Wetterdaten: Woche 12.12.11 - 18.12.11 (KW50)
Datum Zeit Temp. A. Feuchte A. Luftdruck Regen Wind Richtung Taupunkt Windchill Windben
12.12.2011 00:00 2,9 C 85 % 1010,0 hPa 0,0 l/m 0,0 km/h O-NO 0,6 C 2,9 C 0,0 km/h
12.12.2011 01:00 3,8 C 84 % 1009,2 hPa 0,0 l/m 0,0 km/h NO 1,4 C 3,8 C 0,0 km/h
12.12.2011 02:00 5,3 C 85 % 1008,6 hPa 0,0 l/m 0,0 km/h SO 3,0 C 5,3 C 0,0 km/h
12.12.2011 03:00 8,1 C 83 % 1007,9 hPa 0,0 l/m 0,0 km/h W-SW 5,4 C 8,1 C 0,0 km/h
12.12.2011 04:00 8,3 C 77 % 1007,0 hPa 0,0 l/m 0,0 km/h NO 4,5 C 8,3 C 0,0 km/h
12.12.2011 05:00 6,4 C 83 % 1006,2 hPa 0,0 l/m 0,0 km/h SW 3,7 C 6,4 C 0,0 km/h
12.12.2011 06:00 9,3 C 79 % 1005,9 hPa 0,0 l/m 22,7 km/h W-NW 5,8 C 1,5 C 12,6 km/h
12.12.2011 07:00 9,8 C 76 % 1005,4 hPa 0,0 l/m 0,0 km/h W 5,8 C 9,8 C 0,0 km/h
12.12.2011 08:00 7,8 C 85 % 1006,6 hPa 0,4 l/m 14,3 km/h SW 5,4 C 2,8 C 7,9 km/h
12.12.2011 09:00 7,8 C 86 % 1006,9 hPa 0,7 l/m 24,6 km/h SW 5,6 C -1,0 C 13,7 km/h
12.12.2011 10:00 8,5 C 82 % 1007,7 hPa 0,0 l/m 26,6 km/h SW 5,6 C -0,6 C 14,8 km/h
12.12.2011 11:00 8,1 C 84 % 1008,2 hPa 0,0 l/m 25,3 km/h W 5,6 C -0,8 C 14,0 km/h
12.12.2011 12:00 8,1 C 85 % 1009,2 hPa 0,0 l/m 16,2 km/h W-SW 5,7 C 2,3 C 9,0 km/h
12.12.2011 13:00 7,8 C 86 % 1010,1 hPa 0,0 l/m 10,4 km/h W-NW 5,6 C 4,9 C 5,8 km/h
12.12.2011 14:00 8,9 C 86 % 1011,3 hPa 0,4 l/m 0,6 km/h N-NW 6,7 C 8,9 C 0,4 km/h
12.12.2011 15:00 6,3 C 85 % 1012,7 hPa 0,4 l/m 0,0 km/h SO 4,0 C 6,3 C 0,0 km/h
12.12.2011 16:00 5,9 C 86 % 1013,7 hPa 0,0 l/m 0,0 km/h S-SO 3,7 C 5,9 C 0,0 km/h
12.12.2011 17:00 5,2 C 86 % 1014,5 hPa 0,0 l/m 0,0 km/h W 3,1 C 5,2 C 0,0 km/h
12.12.2011 18:00 5,4 C 86 % 1015,8 hPa 0,0 l/m 5,2 km/h W 3,3 C 5,4 C 2,9 km/h
12.12.2011 19:00 5,5 C 85 % 1016,7 hPa 0,0 l/m 7,1 km/h W 3,2 C 4,9 C 4,0 km/h
12.12.2011 20:00 5,0 C 83 % 1016,9 hPa 0,0 l/m 5,8 km/h S-SW 2,4 C 5,0 C 3,2 km/h
12.12.2011 21:00 4,4 C 83 % 1016,4 hPa 0,0 l/m 0,6 km/h S 1,8 C 4,4 C 0,4 km/h
12.12.2011 22:00 4,6 C 83 % 1016,0 hPa 0,0 l/m 8,4 km/h S-SW 2,0 C 2,9 C 4,7 km/h
12.12.2011 23:00 4,1 C 82 % 1015,6 hPa 0,0 l/m 22,7 km/h S-SO 1,3 C -5,4 C 12,6 km/h
13.12.2011 00:00 2,9 C 83 % 1015,3 hPa 0,0 l/m 5,2 km/h S-SO 0,3 C 2,9 C 2,9 km/h
13.12.2011 01:00 2,6 C 81 % 1014,6 hPa 0,0 l/m 4,5 km/h S -0,3 C 2,6 C 2,5 km/h
13.12.2011 02:00 1,6 C 82 % 1013,0 hPa 0,0 l/m 0,0 km/h NO -1,1 C 1,6 C 0,0 km/h
13.12.2011 03:00 1,1 C 85 % 1012,3 hPa 0,0 l/m 4,5 km/h SO -1,1 C 1,1 C 2,5 km/h
13.12.2011 04:00 1,8 C 84 % 1010,7 hPa 0,0 l/m 3,9 km/h NO -0,6 C 1,8 C 2,2 km/h
13.12.2011 05:00 2,4 C 82 % 1010,1 hPa 0,0 l/m 0,0 km/h NO -0,4 C 2,4 C 0,0 km/h
13.12.2011 06:00 2,7 C 83 % 1008,8 hPa 0,0 l/m 7,1 km/h NO 0,1 C 2,0 C 4,0 km/h
13.12.2011 07:00 3,6 C 79 % 1008,1 hPa 0,0 l/m 0,0 km/h S-SW 0,3 C 3,6 C 0,0 km/h
13.12.2011 08:00 8,3 C 56 % 1007,5 hPa 0,0 l/m 22,0 km/h W-SW 0,0 C 0,4 C 12,2 km/h
13.12.2011 09:00 10,3 C 49 % 1006,6 hPa 0,0 l/m 20,7 km/h W 0,1 C 3,5 C 11,5 km/h
13.12.2011 10:00 10,2 C 48 % 1007,3 hPa 0,0 l/m 14,3 km/h S-SW -0,3 C 5,7 C 7,9 km/h
13.12.2011 11:00 7,4 C 66 % 1007,4 hPa 0,0 l/m 14,9 km/h SW 1,5 C 2,0 C 8,3 km/h
13.12.2011 12:00 9,0 C 72 % 1006,2 hPa 0,0 l/m 21,4 km/h W-SW 4,2 C 1,5 C 11,9 km/h
13.12.2011 13:00 11,2 C 63 % 1005,3 hPa 0,0 l/m 22,7 km/h SW 4,4 C 4,1 C 12,6 km/h
13.12.2011 14:00 10,9 C 65 % 1004,8 hPa 0,0 l/m 32,4 km/h W 4,6 C 1,5 C 18,0 km/h
13.12.2011 15:00 11,5 C 66 % 1005,6 hPa 0,0 l/m 11,0 km/h W-SW 5,4 C 8,7 C 6,1 km/h
13.12.2011 16:00 9,6 C 77 % 1005,8 hPa 0,0 l/m 22,7 km/h W-SW 5,8 C 1,9 C 12,6 km/h
13.12.2011 17:00 10,3 C 77 % 1006,2 hPa 0,4 l/m 33,7 km/h S-SW 6,4 C 0,4 C 18,7 km/h
13.12.2011 18:00 11,0 C 73 % 1006,5 hPa 0,0 l/m 24,0 km/h W-SW 6,4 C 3,4 C 13,3 km/h
13.12.2011 19:00 10,6 C 75 % 1006,7 hPa 0,0 l/m 31,8 km/h W-SW 6,4 C 1,1 C 17,6 km/h
13.12.2011 20:00 9,8 C 81 % 1007,3 hPa 0,0 l/m 25,9 km/h SW 6,7 C 1,3 C 14,4 km/h
13.12.2011 21:00 9,1 C 84 % 1007,5 hPa 0,0 l/m 26,6 km/h SW 6,5 C 0,2 C 14,8 km/h
13.12.2011 22:00 10,1 C 78 % 1008,0 hPa 0,0 l/m 51,8 km/h SW 6,4 C -2,3 C 28,8 km/h
13.12.2011 23:00 10,1 C 77 % 1007,9 hPa 0,0 l/m 25,9 km/h W 6,3 C 1,7 C 14,4 km/h
14.12.2011 00:00 8,5 C 83 % 1008,4 hPa 0,0 l/m 11,0 km/h SW 5,8 C 5,3 C 6,1 km/h
14.12.2011 01:00 7,8 C 86 % 1008,5 hPa 0,4 l/m 18,8 km/h S 5,6 C 0,9 C 10,4 km/h
14.12.2011 02:00 8,1 C 85 % 1007,4 hPa 0,0 l/m 5,2 km/h S-SO 5,7 C 8,1 C 2,9 km/h
14.12.2011 03:00 7,8 C 83 % 1006,8 hPa 0,0 l/m 20,7 km/h S 5,1 C 0,2 C 11,5 km/h
14.12.2011 04:00 7,8 C 84 % 1005,6 hPa 0,0 l/m 7,1 km/h SW 5,3 C 7,2 C 4,0 km/h
14.12.2011 05:00 7,9 C 81 % 1004,1 hPa 0,0 l/m 6,5 km/h SW 4,8 C 7,8 C 3,6 km/h
14.12.2011 06:00 10,8 C 63 % 1003,3 hPa 0,0 l/m 31,1 km/h NW 4,0 C 1,6 C 17,3 km/h
14.12.2011 07:00 11,6 C 62 % 1003,2 hPa 0,0 l/m 25,3 km/h W 4,6 C 3,9 C 14,0 km/h
14.12.2011 08:00 9,6 C 75 % 1003,9 hPa 0,0 l/m 7,8 km/h W-SW 5,4 C 8,6 C 4,3 km/h
14.12.2011 09:00 11,3 C 69 % 1004,0 hPa 0,0 l/m 38,2 km/h W-SW 5,8 C 1,1 C 21,2 km/h
14.12.2011 10:00 11,3 C 70 % 1003,7 hPa 0,0 l/m 27,2 km/h W 6,0 C 3,1 C 15,1 km/h
14.12.2011 11:00 10,3 C 76 % 1003,1 hPa 0,0 l/m 15,6 km/h W 6,3 C 5,3 C 8,6 km/h
14.12.2011 12:00 8,9 C 84 % 1004,4 hPa 1,1 l/m 20,1 km/h W-SW 6,3 C 1,8 C 11,2 km/h
14.12.2011 13:00 8,3 C 82 % 1005,3 hPa 0,7 l/m 33,7 km/h S-SW 5,4 C -2,5 C 18,7 km/h
14.12.2011 14:00 9,5 C 76 % 1005,9 hPa 0,0 l/m 35,6 km/h W-SW 5,5 C -1,1 C 19,8 km/h
14.12.2011 15:00 11,3 C 69 % 1006,2 hPa 0,0 l/m 34,3 km/h W 5,8 C 1,7 C 19,1 km/h
14.12.2011 16:00 9,1 C 73 % 1006,9 hPa 0,0 l/m 29,8 km/h W 4,5 C -0,6 C 16,6 km/h
14.12.2011 17:00 6,6 C 82 % 1007,8 hPa 1,1 l/m 38,9 km/h SW 3,8 C -6,0 C 21,6 km/h
14.12.2011 18:00 6,4 C 79 % 1009,4 hPa 0,4 l/m 36,3 km/h W-SW 3,0 C -5,8 C 20,2 km/h
14.12.2011 19:00 7,3 C 76 % 1010,5 hPa 0,0 l/m 26,6 km/h W 3,4 C -2,3 C 14,8 km/h
14.12.2011 20:00 6,4 C 77 % 1011,1 hPa 0,0 l/m 20,1 km/h W 2,7 C -1,4 C 11,2 km/h
14.12.2011 21:00 6,9 C 75 % 1011,3 hPa 0,0 l/m 27,9 km/h S-SW 2,8 C -3,2 C 15,5 km/h
14.12.2011 22:00 5,9 C 74 % 1011,7 hPa 0,0 l/m 16,8 km/h S-SW 1,6 C -0,7 C 9,4 km/h
14.12.2011 23:00 6,1 C 73 % 1010,9 hPa 0,0 l/m 21,4 km/h W 1,6 C -2,3 C 11,9 km/h
15.12.2011 00:00 5,9 C 72 % 1010,1 hPa 0,0 l/m 3,9 km/h W 1,2 C 5,9 C 2,2 km/h
15.12.2011 01:00 5,9 C 72 % 1009,8 hPa 0,0 l/m 11,0 km/h W 1,2 C 2,4 C 6,1 km/h
15.12.2011 02:00 6,7 C 68 % 1009,0 hPa 0,0 l/m 8,4 km/h W-SW 1,2 C 5,1 C 4,7 km/h
15.12.2011 03:00 6,8 C 67 % 1008,5 hPa 0,0 l/m 12,3 km/h W-SW 1,1 C 2,7 C 6,8 km/h
15.12.2011 04:00 5,9 C 75 % 1007,9 hPa 0,0 l/m 16,2 km/h W 1,8 C -0,4 C 9,0 km/h
15.12.2011 05:00 5,6 C 78 % 1007,9 hPa 0,0 l/m 3,9 km/h W 2,1 C 5,6 C 2,2 km/h
15.12.2011 06:00 6,3 C 80 % 1008,2 hPa 0,0 l/m 25,9 km/h SW 3,1 C -3,4 C 14,4 km/h
15.12.2011 07:00 5,2 C 84 % 1009,3 hPa 0,0 l/m 20,1 km/h W-SW 2,7 C -3,0 C 11,2 km/h
15.12.2011 08:00 5,1 C 85 % 1009,4 hPa 0,4 l/m 5,2 km/h SW 2,8 C 5,1 C 2,9 km/h
15.12.2011 09:00 5,9 C 83 % 1009,9 hPa 0,0 l/m 22,7 km/h W 3,2 C -3,0 C 12,6 km/h
15.12.2011 10:00 6,9 C 75 % 1009,8 hPa 0,0 l/m 42,1 km/h W-SW 2,8 C -6,0 C 23,4 km/h
15.12.2011 11:00 6,3 C 81 % 1009,8 hPa 0,0 l/m 25,9 km/h W 3,3 C -3,4 C 14,4 km/h
15.12.2011 12:00 6,9 C 77 % 1009,2 hPa 0,0 l/m 24,6 km/h W 3,2 C -2,2 C 13,7 km/h
15.12.2011 13:00 6,2 C 81 % 1009,3 hPa 0,0 l/m 20,1 km/h W-SW 3,2 C -1,7 C 11,2 km/h
15.12.2011 14:00 6,9 C 80 % 1009,8 hPa 0,0 l/m 29,8 km/h W-SW 3,7 C -3,7 C 16,6 km/h
15.12.2011 15:00 7,3 C 77 % 1010,4 hPa 0,0 l/m 25,9 km/h W-SW 3,5 C -2,1 C 14,4 km/h
15.12.2011 16:00 6,6 C 77 % 1010,8 hPa 0,0 l/m 35,6 km/h W 2,9 C -5,4 C 19,8 km/h
15.12.2011 17:00 6,7 C 76 % 1011,2 hPa 0,0 l/m 18,8 km/h W-SW 2,8 C -0,5 C 10,4 km/h
15.12.2011 18:00 6,6 C 75 % 1010,9 hPa 0,0 l/m 21,4 km/h W 2,5 C -1,6 C 11,9 km/h
15.12.2011 19:00 6,4 C 75 % 1010,8 hPa 0,0 l/m 18,8 km/h W 2,3 C -0,9 C 10,4 km/h
15.12.2011 20:00 6,3 C 76 % 1010,2 hPa 0,0 l/m 14,9 km/h SW 2,4 C 0,7 C 8,3 km/h
15.12.2011 21:00 6,3 C 79 % 1009,9 hPa 0,0 l/m 18,8 km/h W-SW 2,9 C -1,0 C 10,4 km/h
15.12.2011 22:00 6,2 C 80 % 1008,9 hPa 0,0 l/m 18,8 km/h W 3,0 C -1,2 C 10,4 km/h
15.12.2011 23:00 6,1 C 80 % 1007,8 hPa 0,0 l/m 26,6 km/h W-SW 2,9 C -3,9 C 14,8 km/h
16.12.2011 00:00 5,9 C 79 % 1005,1 hPa 0,0 l/m 9,7 km/h S-SW 2,5 C 3,3 C 5,4 km/h
16.12.2011 01:00 6,3 C 81 % 1003,1 hPa 0,0 l/m 20,1 km/h W-SW 3,3 C -1,5 C 11,2 km/h
16.12.2011 02:00 6,3 C 82 % 1000,9 hPa 0,0 l/m 0,0 km/h SW 3,5 C 6,3 C 0,0 km/h
16.12.2011 03:00 7,8 C 80 % 997,8 hPa 0,4 l/m 18,1 km/h W 4,6 C 1,2 C 10,1 km/h
16.12.2011 04:00 8,9 C 76 % 994,9 hPa 0,0 l/m 30,5 km/h W 4,9 C -1,0 C 16,9 km/h
16.12.2011 05:00 8,2 C 80 % 992,7 hPa 0,0 l/m 47,3 km/h W 5,0 C -4,8 C 26,3 km/h
16.12.2011 06:00 8,0 C 82 % 990,8 hPa 0,0 l/m 27,9 km/h W 5,1 C -1,7 C 15,5 km/h
16.12.2011 07:00 8,4 C 82 % 988,9 hPa 0,0 l/m 20,7 km/h W 5,5 C 1,0 C 11,5 km/h
16.12.2011 08:00 8,8 C 81 % 986,9 hPa 0,0 l/m 23,3 km/h W 5,7 C 0,7 C 13,0 km/h
16.12.2011 09:00 9,8 C 77 % 984,9 hPa 0,0 l/m 33,0 km/h W 6,0 C -0,2 C 18,4 km/h
16.12.2011 10:00 10,8 C 74 % 982,8 hPa 0,0 l/m 30,5 km/h W 6,4 C 1,7 C 16,9 km/h
16.12.2011 11:00 11,4 C 74 % 980,9 hPa 0,0 l/m 51,2 km/h W 6,9 C -0,3 C 28,4 km/h
16.12.2011 12:00 12,1 C 71 % 978,9 hPa 0,0 l/m 49,2 km/h W-NW 7,0 C 1,0 C 27,4 km/h
16.12.2011 13:00 11,1 C 79 % 978,6 hPa 0,0 l/m 57,7 km/h W-SW 7,6 C -1,2 C 32,0 km/h
16.12.2011 14:00 9,6 C 85 % 979,8 hPa 0,7 l/m 39,5 km/h NW 7,2 C -1,6 C 22,0 km/h
16.12.2011 15:00 7,8 C 86 % 981,6 hPa 2,1 l/m 21,4 km/h W 5,6 C -0,0 C 11,9 km/h
16.12.2011 16:00 8,2 C 82 % 983,7 hPa 0,4 l/m 33,0 km/h N-NW 5,3 C -2,5 C 18,4 km/h
16.12.2011 17:00 6,9 C 78 % 988,2 hPa 0,0 l/m 6,5 km/h NW 3,3 C 6,8 C 3,6 km/h
16.12.2011 18:00 6,3 C 78 % 990,7 hPa 0,0 l/m 33,7 km/h W 2,8 C -5,4 C 18,7 km/h
16.12.2011 19:00 5,1 C 79 % 993,9 hPa 0,0 l/m 22,7 km/h W-NW 1,8 C -4,0 C 12,6 km/h
16.12.2011 20:00 4,3 C 76 % 995,0 hPa 0,0 l/m 9,1 km/h W 0,5 C 2,0 C 5,0 km/h
16.12.2011 21:00 3,0 C 81 % 995,9 hPa 0,0 l/m 13,0 km/h W 0,1 C -2,2 C 7,2 km/h
16.12.2011 22:00 2,9 C 75 % 996,2 hPa 0,0 l/m 0,0 km/h W -1,1 C 2,9 C 0,0 km/h
16.12.2011 23:00 3,2 C 77 % 996,7 hPa 0,0 l/m 2,6 km/h W-SW -0,4 C 3,2 C 1,4 km/h
17.12.2011 00:00 2,8 C 81 % 996,5 hPa 0,0 l/m 23,3 km/h W-SW -0,1 C -7,3 C 13,0 km/h
17.12.2011 01:00 2,6 C 82 % 996,9 hPa 0,0 l/m 18,1 km/h W -0,2 C -5,4 C 10,1 km/h
17.12.2011 02:00 1,5 C 85 % 997,2 hPa 0,0 l/m 13,0 km/h NW -0,7 C -3,9 C 7,2 km/h
17.12.2011 03:00 1,9 C 86 % 997,6 hPa 0,0 l/m 25,3 km/h W -0,2 C -9,2 C 14,0 km/h
17.12.2011 04:00 2,2 C 86 % 997,7 hPa 0,0 l/m 24,0 km/h W 0,1 C -8,4 C 13,3 km/h
17.12.2011 05:00 2,4 C 86 % 998,4 hPa 0,0 l/m 23,3 km/h W-NW 0,3 C -7,9 C 13,0 km/h
17.12.2011 06:00 2,2 C 86 % 999,6 hPa 0,0 l/m 30,5 km/h W-SW 0,1 C -10,5 C 16,9 km/h
17.12.2011 07:00 1,8 C 86 % 1000,8 hPa 0,7 l/m 9,7 km/h W-NW -0,3 C -1,2 C 5,4 km/h
17.12.2011 08:00 1,7 C 85 % 1002,2 hPa 0,4 l/m 0,0 km/h W-SW -0,5 C 1,7 C 0,0 km/h
17.12.2011 09:00 2,1 C 85 % 1003,4 hPa 0,4 l/m 1,9 km/h W -0,2 C 2,1 C 1,1 km/h
17.12.2011 10:00 2,7 C 85 % 1004,8 hPa 0,0 l/m 0,0 km/h W 0,4 C 2,7 C 0,0 km/h
17.12.2011 11:00 3,1 C 86 % 1005,3 hPa 0,0 l/m 3,2 km/h W 1,0 C 3,1 C 1,8 km/h
17.12.2011 12:00 3,2 C 86 % 1005,8 hPa 0,4 l/m 1,3 km/h W 1,1 C 3,2 C 0,7 km/h
17.12.2011 13:00 3,5 C 87 % 1006,1 hPa 0,0 l/m 3,9 km/h S 1,5 C 3,5 C 2,2 km/h
17.12.2011 14:00 4,1 C 86 % 1006,9 hPa 0,0 l/m 0,0 km/h W 2,0 C 4,1 C 0,0 km/h
17.12.2011 15:00 3,3 C 87 % 1007,7 hPa 0,0 l/m 0,0 km/h S-SW 1,3 C 3,3 C 0,0 km/h
17.12.2011 16:00 2,1 C 86 % 1008,2 hPa 0,0 l/m 0,0 km/h S 0,0 C 2,1 C 0,0 km/h
17.12.2011 17:00 1,3 C 87 % 1008,7 hPa 0,0 l/m 0,0 km/h SO -0,6 C 1,3 C 0,0 km/h
17.12.2011 18:00 0,3 C 87 % 1009,0 hPa 0,0 l/m 0,0 km/h NO -1,6 C 0,3 C 0,0 km/h
17.12.2011 19:00 -0,1 C 86 % 1009,3 hPa 0,0 l/m 0,0 km/h NO -2,2 C -0,1 C 0,0 km/h
17.12.2011 20:00 -0,8 C 86 % 1009,6 hPa 0,0 l/m 0,0 km/h S -2,8 C -0,8 C 0,0 km/h
17.12.2011 21:00 -0,5 C 86 % 1009,6 hPa 0,0 l/m 0,0 km/h W -2,5 C -0,5 C 0,0 km/h
17.12.2011 22:00 1,1 C 85 % 1009,3 hPa 0,0 l/m 0,0 km/h O-NO -1,1 C 1,1 C 0,0 km/h
17.12.2011 23:00 0,1 C 85 % 1008,9 hPa 0,0 l/m 0,0 km/h S-SW -2,1 C 0,1 C 0,0 km/h
18.12.2011 00:00 0,9 C 86 % 1008,7 hPa 0,0 l/m 6,5 km/h S-SW -1,2 C 0,8 C 3,6 km/h
18.12.2011 01:00 1,8 C 87 % 1008,2 hPa 0,0 l/m 13,6 km/h W -0,1 C -4,0 C 7,6 km/h
18.12.2011 02:00 2,6 C 84 % 1007,6 hPa 0,0 l/m 0,0 km/h SW 0,2 C 2,6 C 0,0 km/h
18.12.2011 03:00 2,3 C 86 % 1007,6 hPa 0,0 l/m 21,4 km/h W-NW 0,2 C -7,2 C 11,9 km/h
18.12.2011 04:00 2,2 C 86 % 1007,8 hPa 0,0 l/m 5,8 km/h W 0,1 C 2,2 C 3,2 km/h
18.12.2011 05:00 2,1 C 86 % 1008,0 hPa 0,0 l/m 8,4 km/h W-SW 0,0 C 0,2 C 4,7 km/h
18.12.2011 06:00 1,4 C 86 % 1008,1 hPa 0,0 l/m 25,3 km/h W -0,7 C -9,9 C 14,0 km/h
18.12.2011 07:00 1,8 C 86 % 1008,4 hPa 0,0 l/m 6,5 km/h W -0,3 C 1,7 C 3,6 km/h
18.12.2011 08:00 1,9 C 86 % 1008,9 hPa 0,0 l/m 12,3 km/h W -0,2 C -3,0 C 6,8 km/h
18.12.2011 09:00 0,6 C 86 % 1009,6 hPa 0,0 l/m 4,5 km/h W -1,5 C 0,6 C 2,5 km/h
18.12.2011 10:00 2,1 C 86 % 1010,0 hPa 0,4 l/m 6,5 km/h W 0,0 C 2,0 C 3,6 km/h
18.12.2011 11:00 2,9 C 86 % 1010,3 hPa 0,0 l/m 9,7 km/h W 0,8 C -0,0 C 5,4 km/h
18.12.2011 12:00 3,6 C 85 % 1010,6 hPa 0,0 l/m 13,0 km/h W 1,3 C -1,5 C 7,2 km/h
18.12.2011 13:00 3,9 C 83 % 1010,5 hPa 0,0 l/m 0,0 km/h W-NW 1,3 C 3,9 C 0,0 km/h
18.12.2011 14:00 3,1 C 84 % 1010,7 hPa 0,0 l/m 5,2 km/h W 0,7 C 3,1 C 2,9 km/h
18.12.2011 15:00 2,6 C 86 % 1011,3 hPa 0,0 l/m 14,9 km/h W 0,5 C -3,8 C 8,3 km/h
18.12.2011 16:00 1,8 C 87 % 1012,2 hPa 0,0 l/m 0,0 km/h N-NW -0,1 C 1,8 C 0,0 km/h
18.12.2011 17:00 1,5 C 87 % 1013,2 hPa 0,4 l/m 0,0 km/h W-NW -0,4 C 1,5 C 0,0 km/h
18.12.2011 18:00 0,9 C 87 % 1014,2 hPa 0,4 l/m 0,0 km/h S -1,0 C 0,9 C 0,0 km/h
18.12.2011 19:00 0,6 C 87 % 1015,0 hPa 0,0 l/m 0,0 km/h S-SO -1,3 C 0,6 C 0,0 km/h
18.12.2011 20:00 0,4 C 86 % 1015,5 hPa 0,0 l/m 0,0 km/h S-SW -1,7 C 0,4 C 0,0 km/h
18.12.2011 21:00 0,8 C 85 % 1015,8 hPa 0,0 l/m 0,0 km/h W-NW -1,4 C 0,8 C 0,0 km/h
18.12.2011 22:00 0,6 C 85 % 1016,2 hPa 0,0 l/m 0,0 km/h W-NW -1,6 C 0,6 C 0,0 km/h
18.12.2011 23:00 0,3 C 85 % 1016,7 hPa 0,0 l/m 0,0 km/h W-NW -1,9 C 0,3 C 0,0 km/h
Min-Datum _ 17.12.11 13.12.11 16.12.11 - 12.12.11 - 17.12.11 17.12.11 12.12.11
_ Min-Zeit 20:30 10:30 13:30 - 00:30 - 20:30 06:30 00:30
Minimum _ -0,8 C 48 % 978,6 hPa - 0,0 km/h - -2,8 C -10,5 C 0,0 km/h
Max-Datum _ 16.12.11 17.12.11 12.12.11 16.12.11 16.12.11 - 16.12.11 12.12.11 16.12.11
_ Max-Zeit 12:30 13:30 20:30 15:30 13:30 - 13:30 07:30 13:30
Maximum _ 12,1 C 87 % 1016,9 hPa 2,1 l/m 57,7 km/h
W-SW
- 7,6 C 9,8 C 32,0 km/h
W-SW
Durchschnitt _ 5,7 C 80 % 1005,9 hPa #12,5 l/m 15,3 km/h W 2,5 C 0,8 C 8,5 km/h
www.sexauwetter.de